sensor_id;sensor_type;location;lat;lon;timestamp;P1;durP1;ratioP1;P2;durP2;ratioP2
79036;SDS011;68434;59.896;30.474;2023-05-28T00:00:05;7.07;;;4.63;;
79036;SDS011;68434;59.896;30.474;2023-05-28T00:02:38;6.72;;;4.45;;
79036;SDS011;68434;59.896;30.474;2023-05-28T00:05:06;9.43;;;5.32;;
79036;SDS011;68434;59.896;30.474;2023-05-28T00:07:34;7.80;;;5.20;;
79036;SDS011;68434;59.896;30.474;2023-05-28T00:10:03;7.78;;;4.95;;
79036;SDS011;68434;59.896;30.474;2023-05-28T00:12:32;7.82;;;5.00;;
79036;SDS011;68434;59.896;30.474;2023-05-28T00:14:59;7.72;;;4.63;;
79036;SDS011;68434;59.896;30.474;2023-05-28T00:17:28;9.80;;;6.30;;
79036;SDS011;68434;59.896;30.474;2023-05-28T00:19:55;9.73;;;6.50;;
79036;SDS011;68434;59.896;30.474;2023-05-28T00:22:23;11.90;;;6.95;;
79036;SDS011;68434;59.896;30.474;2023-05-28T00:24:50;8.98;;;5.88;;
79036;SDS011;68434;59.896;30.474;2023-05-28T00:27:19;11.75;;;6.72;;
79036;SDS011;68434;59.896;30.474;2023-05-28T00:29:47;11.02;;;6.60;;
79036;SDS011;68434;59.896;30.474;2023-05-28T00:32:18;10.15;;;6.13;;
79036;SDS011;68434;59.896;30.474;2023-05-28T00:34:45;10.38;;;6.45;;
79036;SDS011;68434;59.896;30.474;2023-05-28T00:37:13;9.88;;;6.28;;
79036;SDS011;68434;59.896;30.474;2023-05-28T00:39:41;9.40;;;6.72;;
79036;SDS011;68434;59.896;30.474;2023-05-28T00:42:09;10.00;;;6.53;;
79036;SDS011;68434;59.896;30.474;2023-05-28T00:44:39;11.32;;;5.97;;
79036;SDS011;68434;59.896;30.474;2023-05-28T00:47:08;12.30;;;5.50;;
79036;SDS011;68434;59.896;30.474;2023-05-28T00:49:36;10.43;;;5.95;;
79036;SDS011;68434;59.896;30.474;2023-05-28T00:52:04;10.27;;;6.03;;
79036;SDS011;68434;59.896;30.474;2023-05-28T00:54:32;8.27;;;5.50;;
79036;SDS011;68434;59.896;30.474;2023-05-28T00:57:00;8.85;;;4.88;;
79036;SDS011;68434;59.896;30.474;2023-05-28T01:01:57;10.38;;;5.68;;
79036;SDS011;68434;59.896;30.474;2023-05-28T01:04:26;8.60;;;4.95;;
79036;SDS011;68434;59.896;30.474;2023-05-28T01:06:54;9.63;;;5.25;;
79036;SDS011;68434;59.896;30.474;2023-05-28T01:09:23;9.38;;;5.63;;
79036;SDS011;68434;59.896;30.474;2023-05-28T01:11:51;10.50;;;5.05;;
79036;SDS011;68434;59.896;30.474;2023-05-28T01:14:20;10.55;;;5.60;;
79036;SDS011;68434;59.896;30.474;2023-05-28T01:16:49;9.68;;;5.28;;
79036;SDS011;68434;59.896;30.474;2023-05-28T01:19:21;8.23;;;5.35;;
79036;SDS011;68434;59.896;30.474;2023-05-28T01:21:56;9.02;;;5.32;;
79036;SDS011;68434;59.896;30.474;2023-05-28T01:24:32;9.13;;;5.10;;
79036;SDS011;68434;59.896;30.474;2023-05-28T01:27:03;9.27;;;5.13;;
79036;SDS011;68434;59.896;30.474;2023-05-28T01:29:32;8.80;;;5.22;;
79036;SDS011;68434;59.896;30.474;2023-05-28T01:32:00;8.88;;;5.45;;
79036;SDS011;68434;59.896;30.474;2023-05-28T01:34:27;13.73;;;5.32;;
79036;SDS011;68434;59.896;30.474;2023-05-28T01:36:56;10.23;;;5.57;;
79036;SDS011;68434;59.896;30.474;2023-05-28T01:39:29;8.02;;;4.80;;
79036;SDS011;68434;59.896;30.474;2023-05-28T01:42:05;9.75;;;4.80;;
79036;SDS011;68434;59.896;30.474;2023-05-28T01:44:35;9.10;;;5.15;;
79036;SDS011;68434;59.896;30.474;2023-05-28T01:47:03;9.80;;;5.20;;
79036;SDS011;68434;59.896;30.474;2023-05-28T01:49:32;8.02;;;4.55;;
79036;SDS011;68434;59.896;30.474;2023-05-28T01:52:01;9.85;;;4.88;;
79036;SDS011;68434;59.896;30.474;2023-05-28T01:54:29;8.77;;;4.80;;
79036;SDS011;68434;59.896;30.474;2023-05-28T01:56:57;8.20;;;5.00;;
79036;SDS011;68434;59.896;30.474;2023-05-28T01:59:26;7.57;;;4.40;;
79036;SDS011;68434;59.896;30.474;2023-05-28T02:01:54;11.10;;;4.78;;
79036;SDS011;68434;59.896;30.474;2023-05-28T02:04:21;8.93;;;4.65;;
79036;SDS011;68434;59.896;30.474;2023-05-28T02:06:49;8.25;;;4.70;;
79036;SDS011;68434;59.896;30.474;2023-05-28T02:09:18;8.77;;;4.80;;
79036;SDS011;68434;59.896;30.474;2023-05-28T02:11:45;8.65;;;4.50;;
79036;SDS011;68434;59.896;30.474;2023-05-28T02:14:13;8.40;;;4.05;;
79036;SDS011;68434;59.896;30.474;2023-05-28T02:16:44;10.15;;;4.53;;
79036;SDS011;68434;59.896;30.474;2023-05-28T02:19:14;10.63;;;4.50;;
79036;SDS011;68434;59.896;30.474;2023-05-28T02:21:42;8.98;;;4.00;;
79036;SDS011;68434;59.896;30.474;2023-05-28T02:24:09;8.30;;;4.13;;
79036;SDS011;68434;59.896;30.474;2023-05-28T02:26:37;7.40;;;4.32;;
79036;SDS011;68434;59.896;30.474;2023-05-28T02:29:04;6.55;;;3.88;;
79036;SDS011;68434;59.896;30.474;2023-05-28T02:31:35;8.65;;;4.15;;
79036;SDS011;68434;59.896;30.474;2023-05-28T02:34:04;8.70;;;4.25;;
79036;SDS011;68434;59.896;30.474;2023-05-28T02:36:33;7.90;;;3.83;;
79036;SDS011;68434;59.896;30.474;2023-05-28T02:39:01;7.85;;;3.97;;
79036;SDS011;68434;59.896;30.474;2023-05-28T02:41:30;8.75;;;4.07;;
79036;SDS011;68434;59.896;30.474;2023-05-28T02:43:57;5.95;;;3.67;;
79036;SDS011;68434;59.896;30.474;2023-05-28T02:46:26;6.53;;;3.95;;
79036;SDS011;68434;59.896;30.474;2023-05-28T02:48:53;10.52;;;4.63;;
79036;SDS011;68434;59.896;30.474;2023-05-28T02:51:24;9.57;;;3.88;;
79036;SDS011;68434;59.896;30.474;2023-05-28T02:53:57;7.45;;;4.22;;
79036;SDS011;68434;59.896;30.474;2023-05-28T02:56:25;7.53;;;3.78;;
79036;SDS011;68434;59.896;30.474;2023-05-28T02:58:52;8.52;;;4.43;;
79036;SDS011;68434;59.896;30.474;2023-05-28T03:01:20;10.40;;;4.43;;
79036;SDS011;68434;59.896;30.474;2023-05-28T03:03:49;8.07;;;4.55;;
79036;SDS011;68434;59.896;30.474;2023-05-28T03:06:17;7.07;;;4.20;;
79036;SDS011;68434;59.896;30.474;2023-05-28T03:08:51;6.05;;;4.75;;
79036;SDS011;68434;59.896;30.474;2023-05-28T03:11:18;7.60;;;3.80;;
79036;SDS011;68434;59.896;30.474;2023-05-28T03:13:46;9.30;;;4.82;;
79036;SDS011;68434;59.896;30.474;2023-05-28T03:16:14;7.93;;;3.97;;
79036;SDS011;68434;59.896;30.474;2023-05-28T03:18:44;6.80;;;4.63;;
79036;SDS011;68434;59.896;30.474;2023-05-28T03:21:11;9.77;;;4.22;;
79036;SDS011;68434;59.896;30.474;2023-05-28T03:23:40;6.63;;;3.45;;
79036;SDS011;68434;59.896;30.474;2023-05-28T03:26:14;7.40;;;4.30;;
79036;SDS011;68434;59.896;30.474;2023-05-28T03:28:42;9.88;;;4.38;;
79036;SDS011;68434;59.896;30.474;2023-05-28T03:31:29;7.47;;;3.30;;
79036;SDS011;68434;59.896;30.474;2023-05-28T03:33:59;12.77;;;5.90;;
79036;SDS011;68434;59.896;30.474;2023-05-28T03:36:27;6.25;;;4.07;;
79036;SDS011;68434;59.896;30.474;2023-05-28T03:38:55;7.00;;;3.67;;
79036;SDS011;68434;59.896;30.474;2023-05-28T03:41:26;6.68;;;3.88;;
79036;SDS011;68434;59.896;30.474;2023-05-28T03:43:54;6.88;;;3.95;;
79036;SDS011;68434;59.896;30.474;2023-05-28T03:46:22;6.70;;;4.00;;
79036;SDS011;68434;59.896;30.474;2023-05-28T03:48:50;7.43;;;3.83;;
79036;SDS011;68434;59.896;30.474;2023-05-28T03:51:17;8.13;;;3.90;;
79036;SDS011;68434;59.896;30.474;2023-05-28T03:53:45;7.85;;;3.63;;
79036;SDS011;68434;59.896;30.474;2023-05-28T03:56:13;8.68;;;4.07;;
79036;SDS011;68434;59.896;30.474;2023-05-28T03:58:42;6.25;;;3.97;;
79036;SDS011;68434;59.896;30.474;2023-05-28T04:01:10;7.00;;;3.92;;
79036;SDS011;68434;59.896;30.474;2023-05-28T04:03:38;7.95;;;3.50;;
79036;SDS011;68434;59.896;30.474;2023-05-28T04:06:06;6.65;;;4.03;;
79036;SDS011;68434;59.896;30.474;2023-05-28T04:08:34;10.38;;;4.30;;
79036;SDS011;68434;59.896;30.474;2023-05-28T04:11:02;8.13;;;4.60;;
79036;SDS011;68434;59.896;30.474;2023-05-28T04:13:29;9.70;;;4.80;;
79036;SDS011;68434;59.896;30.474;2023-05-28T04:15:59;8.45;;;4.10;;
79036;SDS011;68434;59.896;30.474;2023-05-28T04:18:26;7.30;;;4.20;;
79036;SDS011;68434;59.896;30.474;2023-05-28T04:20:54;17.00;;;8.70;;
79036;SDS011;68434;59.896;30.474;2023-05-28T04:23:23;12.55;;;6.30;;
79036;SDS011;68434;59.896;30.474;2023-05-28T04:25:51;11.07;;;5.50;;
79036;SDS011;68434;59.896;30.474;2023-05-28T04:28:19;10.70;;;7.03;;
79036;SDS011;68434;59.896;30.474;2023-05-28T04:30:50;10.20;;;6.55;;
79036;SDS011;68434;59.896;30.474;2023-05-28T04:33:19;9.45;;;4.60;;
79036;SDS011;68434;59.896;30.474;2023-05-28T04:35:48;9.50;;;4.30;;
79036;SDS011;68434;59.896;30.474;2023-05-28T04:38:16;7.22;;;4.22;;
79036;SDS011;68434;59.896;30.474;2023-05-28T04:41:03;7.93;;;3.72;;
79036;SDS011;68434;59.896;30.474;2023-05-28T04:43:31;7.95;;;3.78;;
79036;SDS011;68434;59.896;30.474;2023-05-28T04:46:01;8.73;;;4.22;;
79036;SDS011;68434;59.896;30.474;2023-05-28T04:48:32;6.13;;;3.50;;
79036;SDS011;68434;59.896;30.474;2023-05-28T04:51:01;6.10;;;3.63;;
79036;SDS011;68434;59.896;30.474;2023-05-28T04:53:31;6.30;;;3.22;;
79036;SDS011;68434;59.896;30.474;2023-05-28T04:56:02;7.47;;;3.10;;
79036;SDS011;68434;59.896;30.474;2023-05-28T04:58:34;6.90;;;3.00;;
79036;SDS011;68434;59.896;30.474;2023-05-28T05:01:02;8.02;;;3.45;;
79036;SDS011;68434;59.896;30.474;2023-05-28T05:03:32;5.38;;;2.83;;
79036;SDS011;68434;59.896;30.474;2023-05-28T05:06:01;3.88;;;2.45;;
79036;SDS011;68434;59.896;30.474;2023-05-28T05:08:30;4.78;;;3.00;;
79036;SDS011;68434;59.896;30.474;2023-05-28T05:10:57;4.30;;;2.63;;
79036;SDS011;68434;59.896;30.474;2023-05-28T05:13:27;5.60;;;2.80;;
79036;SDS011;68434;59.896;30.474;2023-05-28T05:15:54;3.88;;;2.15;;
79036;SDS011;68434;59.896;30.474;2023-05-28T05:18:22;4.07;;;1.95;;
79036;SDS011;68434;59.896;30.474;2023-05-28T05:21:10;3.53;;;1.92;;
79036;SDS011;68434;59.896;30.474;2023-05-28T05:23:38;5.10;;;1.98;;
79036;SDS011;68434;59.896;30.474;2023-05-28T05:26:07;3.30;;;2.00;;
79036;SDS011;68434;59.896;30.474;2023-05-28T05:28:52;3.88;;;2.20;;
79036;SDS011;68434;59.896;30.474;2023-05-28T05:31:37;4.28;;;2.35;;
79036;SDS011;68434;59.896;30.474;2023-05-28T05:34:07;5.13;;;2.35;;
79036;SDS011;68434;59.896;30.474;2023-05-28T05:37:13;3.80;;;2.13;;
79036;SDS011;68434;59.896;30.474;2023-05-28T05:40:17;4.25;;;2.00;;
79036;SDS011;68434;59.896;30.474;2023-05-28T05:43:02;6.43;;;2.00;;
79036;SDS011;68434;59.896;30.474;2023-05-28T05:45:30;4.03;;;1.80;;
79036;SDS011;68434;59.896;30.474;2023-05-28T05:47:58;3.35;;;1.60;;
79036;SDS011;68434;59.896;30.474;2023-05-28T05:50:26;3.13;;;1.80;;
79036;SDS011;68434;59.896;30.474;2023-05-28T05:52:55;3.72;;;1.67;;
79036;SDS011;68434;59.896;30.474;2023-05-28T05:55:24;3.75;;;1.73;;
79036;SDS011;68434;59.896;30.474;2023-05-28T05:58:10;2.92;;;1.33;;
79036;SDS011;68434;59.896;30.474;2023-05-28T06:00:37;2.80;;;1.60;;
79036;SDS011;68434;59.896;30.474;2023-05-28T06:03:07;2.70;;;1.67;;
79036;SDS011;68434;59.896;30.474;2023-05-28T06:05:53;2.65;;;1.40;;
79036;SDS011;68434;59.896;30.474;2023-05-28T06:08:33;3.53;;;1.90;;
79036;SDS011;68434;59.896;30.474;2023-05-28T06:11:09;5.43;;;1.63;;
79036;SDS011;68434;59.896;30.474;2023-05-28T06:13:37;2.50;;;1.40;;
79036;SDS011;68434;59.896;30.474;2023-05-28T06:16:05;4.47;;;1.90;;
79036;SDS011;68434;59.896;30.474;2023-05-28T06:18:33;3.92;;;1.63;;
79036;SDS011;68434;59.896;30.474;2023-05-28T06:21:02;2.15;;;1.25;;
79036;SDS011;68434;59.896;30.474;2023-05-28T06:23:33;2.60;;;1.50;;
79036;SDS011;68434;59.896;30.474;2023-05-28T06:26:01;2.88;;;1.60;;
79036;SDS011;68434;59.896;30.474;2023-05-28T06:28:29;3.28;;;1.45;;
79036;SDS011;68434;59.896;30.474;2023-05-28T06:30:57;1.23;;;1.00;;
79036;SDS011;68434;59.896;30.474;2023-05-28T06:33:25;2.53;;;1.20;;
79036;SDS011;68434;59.896;30.474;2023-05-28T06:35:53;4.72;;;1.52;;
79036;SDS011;68434;59.896;30.474;2023-05-28T06:38:21;2.65;;;1.13;;
79036;SDS011;68434;59.896;30.474;2023-05-28T06:40:50;5.57;;;1.70;;
79036;SDS011;68434;59.896;30.474;2023-05-28T06:43:20;3.80;;;1.50;;
79036;SDS011;68434;59.896;30.474;2023-05-28T06:46:23;2.95;;;1.40;;
79036;SDS011;68434;59.896;30.474;2023-05-28T06:48:54;2.67;;;1.38;;
79036;SDS011;68434;59.896;30.474;2023-05-28T06:51:22;4.95;;;1.40;;
79036;SDS011;68434;59.896;30.474;2023-05-28T06:53:49;2.35;;;1.30;;
79036;SDS011;68434;59.896;30.474;2023-05-28T06:56:23;3.38;;;1.70;;
79036;SDS011;68434;59.896;30.474;2023-05-28T06:59:10;6.18;;;3.00;;
79036;SDS011;68434;59.896;30.474;2023-05-28T07:01:59;3.78;;;1.83;;
79036;SDS011;68434;59.896;30.474;2023-05-28T07:04:55;1.90;;;1.30;;
79036;SDS011;68434;59.896;30.474;2023-05-28T07:07:28;2.40;;;1.33;;
79036;SDS011;68434;59.896;30.474;2023-05-28T07:09:56;3.08;;;1.48;;
79036;SDS011;68434;59.896;30.474;2023-05-28T07:15:11;2.70;;;1.52;;
79036;SDS011;68434;59.896;30.474;2023-05-28T07:17:39;2.58;;;1.30;;
79036;SDS011;68434;59.896;30.474;2023-05-28T07:20:14;1.83;;;1.20;;
79036;SDS011;68434;59.896;30.474;2023-05-28T07:22:57;2.20;;;1.38;;
79036;SDS011;68434;59.896;30.474;2023-05-28T07:25:25;1.58;;;1.10;;
79036;SDS011;68434;59.896;30.474;2023-05-28T07:27:55;1.25;;;0.88;;
79036;SDS011;68434;59.896;30.474;2023-05-28T07:30:30;3.53;;;1.40;;
79036;SDS011;68434;59.896;30.474;2023-05-28T07:33:01;2.03;;;1.10;;
79036;SDS011;68434;59.896;30.474;2023-05-28T07:35:29;2.90;;;1.10;;
79036;SDS011;68434;59.896;30.474;2023-05-28T07:37:56;3.40;;;1.40;;
79036;SDS011;68434;59.896;30.474;2023-05-28T07:40:24;1.95;;;0.98;;
79036;SDS011;68434;59.896;30.474;2023-05-28T07:42:56;1.92;;;1.27;;
79036;SDS011;68434;59.896;30.474;2023-05-28T07:45:23;2.50;;;1.10;;
79036;SDS011;68434;59.896;30.474;2023-05-28T07:47:51;3.03;;;1.27;;
79036;SDS011;68434;59.896;30.474;2023-05-28T07:50:35;2.25;;;1.00;;
79036;SDS011;68434;59.896;30.474;2023-05-28T07:53:12;3.13;;;1.27;;
79036;SDS011;68434;59.896;30.474;2023-05-28T07:55:40;2.92;;;1.25;;
79036;SDS011;68434;59.896;30.474;2023-05-28T07:58:09;4.07;;;1.85;;
79036;SDS011;68434;59.896;30.474;2023-05-28T08:00:38;2.08;;;1.13;;
79036;SDS011;68434;59.896;30.474;2023-05-28T08:03:06;1.77;;;1.17;;
79036;SDS011;68434;59.896;30.474;2023-05-28T08:05:39;4.35;;;1.33;;
79036;SDS011;68434;59.896;30.474;2023-05-28T08:08:07;3.00;;;1.23;;
79036;SDS011;68434;59.896;30.474;2023-05-28T08:10:36;1.02;;;0.90;;
79036;SDS011;68434;59.896;30.474;2023-05-28T08:13:05;2.45;;;1.10;;
79036;SDS011;68434;59.896;30.474;2023-05-28T08:15:35;2.00;;;1.15;;
79036;SDS011;68434;59.896;30.474;2023-05-28T08:18:03;2.13;;;1.30;;
79036;SDS011;68434;59.896;30.474;2023-05-28T08:20:32;2.17;;;1.25;;
79036;SDS011;68434;59.896;30.474;2023-05-28T08:23:09;2.03;;;1.42;;
79036;SDS011;68434;59.896;30.474;2023-05-28T08:28:09;1.60;;;1.00;;
79036;SDS011;68434;59.896;30.474;2023-05-28T08:30:52;3.33;;;1.20;;
79036;SDS011;68434;59.896;30.474;2023-05-28T08:34:04;3.40;;;1.30;;
79036;SDS011;68434;59.896;30.474;2023-05-28T08:36:32;1.85;;;1.13;;
79036;SDS011;68434;59.896;30.474;2023-05-28T08:39:02;2.38;;;1.15;;
79036;SDS011;68434;59.896;30.474;2023-05-28T08:41:31;3.67;;;1.20;;
79036;SDS011;68434;59.896;30.474;2023-05-28T08:43:59;2.08;;;1.20;;
79036;SDS011;68434;59.896;30.474;2023-05-28T08:46:30;2.40;;;1.33;;
79036;SDS011;68434;59.896;30.474;2023-05-28T08:49:18;3.38;;;1.27;;
79036;SDS011;68434;59.896;30.474;2023-05-28T08:51:47;1.25;;;0.98;;
79036;SDS011;68434;59.896;30.474;2023-05-28T08:54:19;2.00;;;1.10;;
79036;SDS011;68434;59.896;30.474;2023-05-28T08:56:47;2.70;;;1.20;;
79036;SDS011;68434;59.896;30.474;2023-05-28T08:59:14;5.10;;;1.70;;
79036;SDS011;68434;59.896;30.474;2023-05-28T09:06:46;4.10;;;1.15;;
79036;SDS011;68434;59.896;30.474;2023-05-28T09:12:28;7.07;;;1.52;;
79036;SDS011;68434;59.896;30.474;2023-05-28T09:15:15;2.55;;;1.50;;
79036;SDS011;68434;59.896;30.474;2023-05-28T09:17:48;4.05;;;1.67;;
79036;SDS011;68434;59.896;30.474;2023-05-28T09:20:22;2.78;;;1.40;;
79036;SDS011;68434;59.896;30.474;2023-05-28T09:26:00;2.38;;;1.20;;
79036;SDS011;68434;59.896;30.474;2023-05-28T09:28:40;2.17;;;1.10;;
79036;SDS011;68434;59.896;30.474;2023-05-28T09:31:09;1.33;;;1.10;;
79036;SDS011;68434;59.896;30.474;2023-05-28T09:38:38;2.15;;;1.45;;
79036;SDS011;68434;59.896;30.474;2023-05-28T09:41:17;4.70;;;1.35;;
79036;SDS011;68434;59.896;30.474;2023-05-28T09:43:46;10.50;;;6.35;;
79036;SDS011;68434;59.896;30.474;2023-05-28T09:46:22;4.18;;;2.00;;
79036;SDS011;68434;59.896;30.474;2023-05-28T09:48:56;2.45;;;1.30;;
79036;SDS011;68434;59.896;30.474;2023-05-28T09:51:27;2.70;;;1.55;;
79036;SDS011;68434;59.896;30.474;2023-05-28T09:53:57;5.30;;;1.50;;
79036;SDS011;68434;59.896;30.474;2023-05-28T09:56:26;3.17;;;1.40;;
79036;SDS011;68434;59.896;30.474;2023-05-28T09:58:57;3.05;;;1.20;;
79036;SDS011;68434;59.896;30.474;2023-05-28T10:01:29;2.05;;;1.30;;
79036;SDS011;68434;59.896;30.474;2023-05-28T10:04:07;8.52;;;6.38;;
79036;SDS011;68434;59.896;30.474;2023-05-28T10:06:37;3.92;;;2.47;;
79036;SDS011;68434;59.896;30.474;2023-05-28T10:09:06;8.40;;;1.73;;
79036;SDS011;68434;59.896;30.474;2023-05-28T10:11:39;4.60;;;1.80;;
79036;SDS011;68434;59.896;30.474;2023-05-28T10:14:10;2.30;;;1.17;;
79036;SDS011;68434;59.896;30.474;2023-05-28T10:16:38;5.57;;;1.30;;
79036;SDS011;68434;59.896;30.474;2023-05-28T10:19:08;2.83;;;1.50;;
79036;SDS011;68434;59.896;30.474;2023-05-28T10:21:36;2.67;;;1.40;;
79036;SDS011;68434;59.896;30.474;2023-05-28T10:24:04;3.97;;;1.65;;
79036;SDS011;68434;59.896;30.474;2023-05-28T10:29:01;3.55;;;1.20;;
79036;SDS011;68434;59.896;30.474;2023-05-28T10:31:33;2.20;;;1.27;;
79036;SDS011;68434;59.896;30.474;2023-05-28T10:34:02;2.42;;;1.20;;
79036;SDS011;68434;59.896;30.474;2023-05-28T10:36:50;4.13;;;1.60;;
79036;SDS011;68434;59.896;30.474;2023-05-28T10:39:19;2.28;;;1.05;;
79036;SDS011;68434;59.896;30.474;2023-05-28T10:41:47;2.95;;;1.38;;
79036;SDS011;68434;59.896;30.474;2023-05-28T10:44:16;3.20;;;1.52;;
79036;SDS011;68434;59.896;30.474;2023-05-28T10:46:44;2.50;;;1.40;;
79036;SDS011;68434;59.896;30.474;2023-05-28T10:49:12;3.40;;;1.77;;
79036;SDS011;68434;59.896;30.474;2023-05-28T10:57:08;5.97;;;1.90;;
79036;SDS011;68434;59.896;30.474;2023-05-28T10:59:44;3.25;;;1.50;;
79036;SDS011;68434;59.896;30.474;2023-05-28T11:02:16;4.75;;;1.80;;
79036;SDS011;68434;59.896;30.474;2023-05-28T11:04:45;2.85;;;1.50;;
79036;SDS011;68434;59.896;30.474;2023-05-28T11:07:14;3.45;;;1.48;;
79036;SDS011;68434;59.896;30.474;2023-05-28T11:09:41;2.30;;;1.40;;
79036;SDS011;68434;59.896;30.474;2023-05-28T11:12:09;2.70;;;1.50;;
79036;SDS011;68434;59.896;30.474;2023-05-28T11:14:39;2.28;;;1.17;;
79036;SDS011;68434;59.896;30.474;2023-05-28T11:17:07;2.78;;;1.40;;
79036;SDS011;68434;59.896;30.474;2023-05-28T11:19:42;3.03;;;1.40;;
79036;SDS011;68434;59.896;30.474;2023-05-28T11:22:11;2.28;;;1.30;;
79036;SDS011;68434;59.896;30.474;2023-05-28T11:24:53;5.65;;;1.80;;
79036;SDS011;68434;59.896;30.474;2023-05-28T11:27:24;2.33;;;1.40;;
79036;SDS011;68434;59.896;30.474;2023-05-28T11:29:53;2.42;;;1.42;;
79036;SDS011;68434;59.896;30.474;2023-05-28T11:32:22;3.33;;;1.85;;
79036;SDS011;68434;59.896;30.474;2023-05-28T11:34:50;2.50;;;1.30;;
79036;SDS011;68434;59.896;30.474;2023-05-28T11:37:22;2.70;;;1.25;;
79036;SDS011;68434;59.896;30.474;2023-05-28T11:39:54;1.80;;;1.08;;
79036;SDS011;68434;59.896;30.474;2023-05-28T11:42:23;3.10;;;1.63;;
79036;SDS011;68434;59.896;30.474;2023-05-28T11:44:51;2.97;;;1.38;;
79036;SDS011;68434;59.896;30.474;2023-05-28T11:47:20;2.80;;;1.25;;
79036;SDS011;68434;59.896;30.474;2023-05-28T11:49:48;2.95;;;1.40;;
79036;SDS011;68434;59.896;30.474;2023-05-28T11:52:16;4.07;;;1.67;;
79036;SDS011;68434;59.896;30.474;2023-05-28T11:54:45;3.47;;;1.42;;
79036;SDS011;68434;59.896;30.474;2023-05-28T11:57:19;2.47;;;1.40;;
79036;SDS011;68434;59.896;30.474;2023-05-28T11:59:54;6.72;;;1.65;;
79036;SDS011;68434;59.896;30.474;2023-05-28T12:02:22;2.35;;;1.33;;
79036;SDS011;68434;59.896;30.474;2023-05-28T12:04:54;3.47;;;1.58;;
79036;SDS011;68434;59.896;30.474;2023-05-28T12:07:26;3.42;;;1.50;;
79036;SDS011;68434;59.896;30.474;2023-05-28T12:10:04;3.90;;;1.48;;
79036;SDS011;68434;59.896;30.474;2023-05-28T12:12:38;8.13;;;1.50;;
79036;SDS011;68434;59.896;30.474;2023-05-28T12:15:06;3.25;;;1.60;;
79036;SDS011;68434;59.896;30.474;2023-05-28T12:17:35;5.70;;;1.50;;
79036;SDS011;68434;59.896;30.474;2023-05-28T12:20:06;3.10;;;1.50;;
79036;SDS011;68434;59.896;30.474;2023-05-28T12:23:04;1.80;;;1.20;;
79036;SDS011;68434;59.896;30.474;2023-05-28T12:25:45;4.78;;;1.50;;
79036;SDS011;68434;59.896;30.474;2023-05-28T12:28:16;5.65;;;2.00;;
79036;SDS011;68434;59.896;30.474;2023-05-28T12:30:47;2.85;;;1.38;;
79036;SDS011;68434;59.896;30.474;2023-05-28T12:33:16;4.05;;;1.42;;
79036;SDS011;68434;59.896;30.474;2023-05-28T12:35:44;3.75;;;1.60;;
79036;SDS011;68434;59.896;30.474;2023-05-28T12:38:13;5.57;;;1.77;;
79036;SDS011;68434;59.896;30.474;2023-05-28T12:40:41;8.35;;;4.35;;
79036;SDS011;68434;59.896;30.474;2023-05-28T12:43:08;3.83;;;2.15;;
79036;SDS011;68434;59.896;30.474;2023-05-28T12:45:37;4.85;;;2.05;;
79036;SDS011;68434;59.896;30.474;2023-05-28T12:48:05;3.13;;;1.70;;
79036;SDS011;68434;59.896;30.474;2023-05-28T12:50:34;5.10;;;1.70;;
79036;SDS011;68434;59.896;30.474;2023-05-28T12:53:01;3.33;;;1.80;;
79036;SDS011;68434;59.896;30.474;2023-05-28T12:55:30;5.05;;;3.30;;
79036;SDS011;68434;59.896;30.474;2023-05-28T12:57:58;12.70;;;6.18;;
79036;SDS011;68434;59.896;30.474;2023-05-28T13:00:25;6.15;;;3.17;;
79036;SDS011;68434;59.896;30.474;2023-05-28T13:02:54;4.32;;;2.42;;
79036;SDS011;68434;59.896;30.474;2023-05-28T13:05:22;2.80;;;1.40;;
79036;SDS011;68434;59.896;30.474;2023-05-28T13:07:50;2.42;;;1.52;;
79036;SDS011;68434;59.896;30.474;2023-05-28T13:10:18;4.68;;;1.27;;
79036;SDS011;68434;59.896;30.474;2023-05-28T13:12:46;3.95;;;1.52;;
79036;SDS011;68434;59.896;30.474;2023-05-28T13:15:13;4.68;;;3.40;;
79036;SDS011;68434;59.896;30.474;2023-05-28T13:17:41;3.22;;;2.08;;
79036;SDS011;68434;59.896;30.474;2023-05-28T13:22:38;2.70;;;1.73;;
79036;SDS011;68434;59.896;30.474;2023-05-28T13:25:06;6.95;;;4.10;;
79036;SDS011;68434;59.896;30.474;2023-05-28T13:27:35;8.07;;;2.72;;
79036;SDS011;68434;59.896;30.474;2023-05-28T13:30:02;18.45;;;11.02;;
79036;SDS011;68434;59.896;30.474;2023-05-28T13:32:33;4.45;;;2.40;;
79036;SDS011;68434;59.896;30.474;2023-05-28T13:35:00;4.18;;;1.80;;
79036;SDS011;68434;59.896;30.474;2023-05-28T13:37:33;6.45;;;3.00;;
79036;SDS011;68434;59.896;30.474;2023-05-28T13:40:01;3.65;;;1.73;;
79036;SDS011;68434;59.896;30.474;2023-05-28T13:42:30;3.88;;;1.88;;
79036;SDS011;68434;59.896;30.474;2023-05-28T13:45:06;4.78;;;2.35;;
79036;SDS011;68434;59.896;30.474;2023-05-28T13:47:38;3.20;;;1.60;;
79036;SDS011;68434;59.896;30.474;2023-05-28T13:50:06;5.70;;;3.67;;
79036;SDS011;68434;59.896;30.474;2023-05-28T13:55:03;4.45;;;2.00;;
79036;SDS011;68434;59.896;30.474;2023-05-28T13:57:32;4.15;;;1.92;;
79036;SDS011;68434;59.896;30.474;2023-05-28T14:00:00;2.85;;;1.40;;
79036;SDS011;68434;59.896;30.474;2023-05-28T14:02:36;3.45;;;2.30;;
79036;SDS011;68434;59.896;30.474;2023-05-28T14:05:04;4.18;;;2.15;;
79036;SDS011;68434;59.896;30.474;2023-05-28T14:07:32;2.47;;;1.48;;
79036;SDS011;68434;59.896;30.474;2023-05-28T14:10:02;2.78;;;1.67;;
79036;SDS011;68434;59.896;30.474;2023-05-28T14:12:30;3.13;;;1.45;;
79036;SDS011;68434;59.896;30.474;2023-05-28T14:14:58;3.42;;;1.40;;
79036;SDS011;68434;59.896;30.474;2023-05-28T14:17:27;5.72;;;1.50;;
79036;SDS011;68434;59.896;30.474;2023-05-28T14:19:55;6.25;;;2.22;;
79036;SDS011;68434;59.896;30.474;2023-05-28T14:22:22;5.20;;;1.70;;
79036;SDS011;68434;59.896;30.474;2023-05-28T14:24:50;3.67;;;1.58;;
79036;SDS011;68434;59.896;30.474;2023-05-28T14:27:19;2.15;;;1.17;;
79036;SDS011;68434;59.896;30.474;2023-05-28T14:29:46;4.88;;;1.67;;
79036;SDS011;68434;59.896;30.474;2023-05-28T14:32:14;2.90;;;1.48;;
79036;SDS011;68434;59.896;30.474;2023-05-28T14:34:42;3.03;;;1.70;;
79036;SDS011;68434;59.896;30.474;2023-05-28T14:37:09;4.97;;;1.92;;
79036;SDS011;68434;59.896;30.474;2023-05-28T14:39:37;2.42;;;1.40;;
79036;SDS011;68434;59.896;30.474;2023-05-28T14:42:05;3.15;;;1.67;;
79036;SDS011;68434;59.896;30.474;2023-05-28T14:44:34;6.78;;;2.72;;
79036;SDS011;68434;59.896;30.474;2023-05-28T14:47:04;6.38;;;3.80;;
79036;SDS011;68434;59.896;30.474;2023-05-28T14:49:31;7.03;;;4.32;;
79036;SDS011;68434;59.896;30.474;2023-05-28T14:52:19;3.05;;;1.92;;
79036;SDS011;68434;59.896;30.474;2023-05-28T14:54:48;2.70;;;1.85;;
79036;SDS011;68434;59.896;30.474;2023-05-28T14:57:15;1.88;;;1.40;;
79036;SDS011;68434;59.896;30.474;2023-05-28T14:59:45;4.88;;;1.92;;
79036;SDS011;68434;59.896;30.474;2023-05-28T15:02:13;2.53;;;1.50;;
79036;SDS011;68434;59.896;30.474;2023-05-28T15:04:41;3.38;;;1.73;;
79036;SDS011;68434;59.896;30.474;2023-05-28T15:09:36;2.00;;;1.20;;
79036;SDS011;68434;59.896;30.474;2023-05-28T15:12:06;2.42;;;1.30;;
79036;SDS011;68434;59.896;30.474;2023-05-28T15:14:34;5.90;;;2.70;;
79036;SDS011;68434;59.896;30.474;2023-05-28T15:17:06;3.92;;;2.00;;
79036;SDS011;68434;59.896;30.474;2023-05-28T15:19:34;4.43;;;2.47;;
79036;SDS011;68434;59.896;30.474;2023-05-28T15:22:02;5.22;;;2.60;;
79036;SDS011;68434;59.896;30.474;2023-05-28T15:26:58;4.07;;;1.90;;
79036;SDS011;68434;59.896;30.474;2023-05-28T15:29:26;8.48;;;2.65;;
79036;SDS011;68434;59.896;30.474;2023-05-28T15:31:55;3.92;;;1.88;;
79036;SDS011;68434;59.896;30.474;2023-05-28T15:34:25;8.20;;;3.28;;